sensor_id;sensor_type;location;lat;lon;timestamp;temperature;humidity
16674;DHT22;8450;52.654;10.326;2023-05-18T04:31:27;1.00;99.90
16674;DHT22;8450;52.654;10.326;2023-05-18T04:33:57;1.00;99.90
16674;DHT22;8450;52.654;10.326;2023-05-18T04:36:25;1.00;99.90
16674;DHT22;8450;52.654;10.326;2023-05-18T04:38:56;1.00;99.90
16674;DHT22;8450;52.654;10.326;2023-05-18T04:41:26;1.10;99.90
16674;DHT22;8450;52.654;10.326;2023-05-18T04:43:52;1.00;99.90
16674;DHT22;8450;52.654;10.326;2023-05-18T04:46:19;1.10;99.90
16674;DHT22;8450;52.654;10.326;2023-05-18T04:48:47;1.10;99.90
16674;DHT22;8450;52.654;10.326;2023-05-18T04:51:16;1.10;99.90
16674;DHT22;8450;52.654;10.326;2023-05-18T04:53:50;1.10;99.90
16674;DHT22;8450;52.654;10.326;2023-05-18T04:56:19;1.20;99.90
16674;DHT22;8450;52.654;10.326;2023-05-18T04:58:48;1.20;99.90
16674;DHT22;8450;52.654;10.326;2023-05-18T05:01:14;1.30;99.90
16674;DHT22;8450;52.654;10.326;2023-05-18T05:03:43;1.30;99.90
16674;DHT22;8450;52.654;10.326;2023-05-18T05:06:09;1.30;99.90
16674;DHT22;8450;52.654;10.326;2023-05-18T05:08:36;1.40;99.90
16674;DHT22;8450;52.654;10.326;2023-05-18T05:11:02;1.40;99.90
16674;DHT22;8450;52.654;10.326;2023-05-18T05:13:28;1.50;99.90
16674;DHT22;8450;52.654;10.326;2023-05-18T05:15:54;1.60;99.90
16674;DHT22;8450;52.654;10.326;2023-05-18T05:18:19;1.60;99.90
16674;DHT22;8450;52.654;10.326;2023-05-18T05:20:45;1.70;99.90
16674;DHT22;8450;52.654;10.326;2023-05-18T05:23:11;1.70;99.90
16674;DHT22;8450;52.654;10.326;2023-05-18T05:25:39;1.80;99.90
16674;DHT22;8450;52.654;10.326;2023-05-18T05:28:05;1.90;99.90
16674;DHT22;8450;52.654;10.326;2023-05-18T05:30:31;2.10;99.90
16674;DHT22;8450;52.654;10.326;2023-05-18T05:32:57;2.20;99.90
16674;DHT22;8450;52.654;10.326;2023-05-18T05:35:23;2.30;99.90
16674;DHT22;8450;52.654;10.326;2023-05-18T05:37:49;2.40;99.90
16674;DHT22;8450;52.654;10.326;2023-05-18T05:40:15;2.60;99.90
16674;DHT22;8450;52.654;10.326;2023-05-18T05:42:44;2.80;99.90
16674;DHT22;8450;52.654;10.326;2023-05-18T05:45:09;3.00;99.90
16674;DHT22;8450;52.654;10.326;2023-05-18T05:47:56;3.10;99.90
16674;DHT22;8450;52.654;10.326;2023-05-18T05:50:23;3.20;99.90
16674;DHT22;8450;52.654;10.326;2023-05-18T05:52:51;3.40;99.90
16674;DHT22;8450;52.654;10.326;2023-05-18T05:55:17;3.50;99.90
16674;DHT22;8450;52.654;10.326;2023-05-18T05:57:43;3.70;99.90
16674;DHT22;8450;52.654;10.326;2023-05-18T06:00:10;3.90;99.90
16674;DHT22;8450;52.654;10.326;2023-05-18T06:02:52;4.20;99.90
16674;DHT22;8450;52.654;10.326;2023-05-18T06:05:25;4.30;99.90
16674;DHT22;8450;52.654;10.326;2023-05-18T06:07:51;4.50;99.90
16674;DHT22;8450;52.654;10.326;2023-05-18T06:10:18;4.70;99.90
16674;DHT22;8450;52.654;10.326;2023-05-18T06:12:43;5.10;99.90
16674;DHT22;8450;52.654;10.326;2023-05-18T06:15:09;5.20;99.90
16674;DHT22;8450;52.654;10.326;2023-05-18T06:17:38;5.50;99.90
16674;DHT22;8450;52.654;10.326;2023-05-18T06:20:04;5.70;99.90
16674;DHT22;8450;52.654;10.326;2023-05-18T06:22:31;5.90;99.90
16674;DHT22;8450;52.654;10.326;2023-05-18T06:25:10;6.10;99.90
16674;DHT22;8450;52.654;10.326;2023-05-18T06:27:59;6.30;99.90
16674;DHT22;8450;52.654;10.326;2023-05-18T06:30:41;6.50;99.90
16674;DHT22;8450;52.654;10.326;2023-05-18T06:33:13;6.70;99.90
16674;DHT22;8450;52.654;10.326;2023-05-18T06:35:39;6.90;99.90
16674;DHT22;8450;52.654;10.326;2023-05-18T06:38:06;7.10;99.90
16674;DHT22;8450;52.654;10.326;2023-05-18T06:40:31;7.30;99.90
16674;DHT22;8450;52.654;10.326;2023-05-18T06:42:57;7.60;99.90
16674;DHT22;8450;52.654;10.326;2023-05-18T06:45:25;7.70;99.90
16674;DHT22;8450;52.654;10.326;2023-05-18T06:47:53;7.90;99.90
16674;DHT22;8450;52.654;10.326;2023-05-18T06:50:19;8.20;99.90
16674;DHT22;8450;52.654;10.326;2023-05-18T06:52:46;8.40;99.90
16674;DHT22;8450;52.654;10.326;2023-05-18T06:55:12;8.60;99.90
16674;DHT22;8450;52.654;10.326;2023-05-18T06:57:39;8.80;99.90
16674;DHT22;8450;52.654;10.326;2023-05-18T07:00:06;9.00;99.90
16674;DHT22;8450;52.654;10.326;2023-05-18T07:02:37;9.30;99.90
16674;DHT22;8450;52.654;10.326;2023-05-18T07:05:03;9.50;99.90
16674;DHT22;8450;52.654;10.326;2023-05-18T07:07:30;9.70;99.90
16674;DHT22;8450;52.654;10.326;2023-05-18T07:09:56;9.90;99.90
16674;DHT22;8450;52.654;10.326;2023-05-18T07:12:23;10.10;99.90
16674;DHT22;8450;52.654;10.326;2023-05-18T07:14:50;10.30;99.90
16674;DHT22;8450;52.654;10.326;2023-05-18T07:17:16;10.60;99.90
16674;DHT22;8450;52.654;10.326;2023-05-18T07:19:41;10.80;99.90
16674;DHT22;8450;52.654;10.326;2023-05-18T07:22:07;11.00;99.90
16674;DHT22;8450;52.654;10.326;2023-05-18T07:24:33;11.50;99.90
16674;DHT22;8450;52.654;10.326;2023-05-18T07:26:58;11.50;99.90
16674;DHT22;8450;52.654;10.326;2023-05-18T07:29:24;11.80;99.90
16674;DHT22;8450;52.654;10.326;2023-05-18T07:31:49;12.20;99.90
16674;DHT22;8450;52.654;10.326;2023-05-18T07:34:15;12.30;99.90
16674;DHT22;8450;52.654;10.326;2023-05-18T07:36:41;12.40;99.90
16674;DHT22;8450;52.654;10.326;2023-05-18T07:39:06;12.60;99.90
16674;DHT22;8450;52.654;10.326;2023-05-18T07:41:32;12.80;99.90
16674;DHT22;8450;52.654;10.326;2023-05-18T07:43:58;13.00;99.90
16674;DHT22;8450;52.654;10.326;2023-05-18T07:46:23;13.20;99.90
16674;DHT22;8450;52.654;10.326;2023-05-18T07:48:49;13.30;99.90
16674;DHT22;8450;52.654;10.326;2023-05-18T07:51:15;13.80;99.90
16674;DHT22;8450;52.654;10.326;2023-05-18T07:53:40;13.80;99.90
16674;DHT22;8450;52.654;10.326;2023-05-18T07:56:06;14.00;99.90
16674;DHT22;8450;52.654;10.326;2023-05-18T07:58:34;14.20;99.90
16674;DHT22;8450;52.654;10.326;2023-05-18T08:01:00;14.50;99.90
16674;DHT22;8450;52.654;10.326;2023-05-18T08:03:25;14.60;99.90
16674;DHT22;8450;52.654;10.326;2023-05-18T08:05:51;14.80;99.90
16674;DHT22;8450;52.654;10.326;2023-05-18T08:08:16;15.10;99.90
16674;DHT22;8450;52.654;10.326;2023-05-18T08:10:43;15.30;99.90
16674;DHT22;8450;52.654;10.326;2023-05-18T08:13:08;15.50;99.90
16674;DHT22;8450;52.654;10.326;2023-05-18T08:15:34;15.60;99.90
16674;DHT22;8450;52.654;10.326;2023-05-18T08:18:00;15.80;99.90
16674;DHT22;8450;52.654;10.326;2023-05-18T08:20:26;15.90;99.90
16674;DHT22;8450;52.654;10.326;2023-05-18T08:22:55;16.20;99.90
16674;DHT22;8450;52.654;10.326;2023-05-18T08:25:21;16.20;99.90
16674;DHT22;8450;52.654;10.326;2023-05-18T08:27:48;16.30;99.90
16674;DHT22;8450;52.654;10.326;2023-05-18T08:30:14;16.40;99.90
16674;DHT22;8450;52.654;10.326;2023-05-18T08:32:39;16.60;99.90
16674;DHT22;8450;52.654;10.326;2023-05-18T08:35:06;16.60;99.90
16674;DHT22;8450;52.654;10.326;2023-05-18T08:37:32;16.80;99.90
16674;DHT22;8450;52.654;10.326;2023-05-18T08:39:58;17.00;99.90
16674;DHT22;8450;52.654;10.326;2023-05-18T08:45:10;17.30;99.90
16674;DHT22;8450;52.654;10.326;2023-05-18T08:47:39;17.60;99.90
16674;DHT22;8450;52.654;10.326;2023-05-18T08:50:05;17.90;99.90
16674;DHT22;8450;52.654;10.326;2023-05-18T08:52:36;18.10;99.90
16674;DHT22;8450;52.654;10.326;2023-05-18T08:55:05;18.20;99.90
16674;DHT22;8450;52.654;10.326;2023-05-18T08:57:34;18.40;99.90
16674;DHT22;8450;52.654;10.326;2023-05-18T09:00:01;18.50;99.90
16674;DHT22;8450;52.654;10.326;2023-05-18T09:04:55;18.70;99.90
16674;DHT22;8450;52.654;10.326;2023-05-18T09:07:22;18.80;99.90
16674;DHT22;8450;52.654;10.326;2023-05-18T09:09:48;19.00;99.90
16674;DHT22;8450;52.654;10.326;2023-05-18T09:12:15;19.10;99.90
16674;DHT22;8450;52.654;10.326;2023-05-18T09:14:42;19.20;99.90
16674;DHT22;8450;52.654;10.326;2023-05-18T09:17:08;19.20;99.90
16674;DHT22;8450;52.654;10.326;2023-05-18T09:19:34;19.30;99.90
16674;DHT22;8450;52.654;10.326;2023-05-18T09:22:00;19.40;99.90
16674;DHT22;8450;52.654;10.326;2023-05-18T09:24:25;19.50;99.90
16674;DHT22;8450;52.654;10.326;2023-05-18T09:26:51;19.50;99.90
16674;DHT22;8450;52.654;10.326;2023-05-18T09:29:19;19.60;99.90
16674;DHT22;8450;52.654;10.326;2023-05-18T09:31:45;19.70;99.90
16674;DHT22;8450;52.654;10.326;2023-05-18T09:34:12;19.70;99.90
16674;DHT22;8450;52.654;10.326;2023-05-18T09:36:37;19.70;99.90
16674;DHT22;8450;52.654;10.326;2023-05-18T09:39:08;19.70;99.90
16674;DHT22;8450;52.654;10.326;2023-05-18T09:41:37;19.80;99.90
16674;DHT22;8450;52.654;10.326;2023-05-18T09:44:07;19.80;99.90
16674;DHT22;8450;52.654;10.326;2023-05-18T09:46:40;19.80;99.90
16674;DHT22;8450;52.654;10.326;2023-05-18T09:49:06;19.80;99.90
16674;DHT22;8450;52.654;10.326;2023-05-18T09:51:36;19.70;99.90
16674;DHT22;8450;52.654;10.326;2023-05-18T09:54:02;19.60;99.90
16674;DHT22;8450;52.654;10.326;2023-05-18T09:56:34;19.40;99.90
16674;DHT22;8450;52.654;10.326;2023-05-18T09:59:11;19.30;99.90
16674;DHT22;8450;52.654;10.326;2023-05-18T10:01:45;19.30;99.90
16674;DHT22;8450;52.654;10.326;2023-05-18T10:04:19;19.20;99.90
16674;DHT22;8450;52.654;10.326;2023-05-18T10:06:49;19.10;99.90
16674;DHT22;8450;52.654;10.326;2023-05-18T10:09:15;19.10;99.90
16674;DHT22;8450;52.654;10.326;2023-05-18T10:11:41;19.00;99.90
16674;DHT22;8450;52.654;10.326;2023-05-18T10:14:10;18.90;99.90
16674;DHT22;8450;52.654;10.326;2023-05-18T10:16:35;18.90;99.90
16674;DHT22;8450;52.654;10.326;2023-05-18T10:19:02;18.80;99.90
16674;DHT22;8450;52.654;10.326;2023-05-18T10:21:33;18.80;99.90
16674;DHT22;8450;52.654;10.326;2023-05-18T10:24:02;19.00;99.90
16674;DHT22;8450;52.654;10.326;2023-05-18T10:26:29;19.10;99.90
16674;DHT22;8450;52.654;10.326;2023-05-18T10:28:58;19.30;99.90
16674;DHT22;8450;52.654;10.326;2023-05-18T10:31:24;19.50;99.90
16674;DHT22;8450;52.654;10.326;2023-05-18T10:33:52;19.80;99.90
16674;DHT22;8450;52.654;10.326;2023-05-18T10:36:18;19.90;99.90
16674;DHT22;8450;52.654;10.326;2023-05-18T10:38:45;20.10;99.90
16674;DHT22;8450;52.654;10.326;2023-05-18T10:41:12;20.20;99.90
16674;DHT22;8450;52.654;10.326;2023-05-18T10:43:40;20.50;99.90
16674;DHT22;8450;52.654;10.326;2023-05-18T10:46:06;20.60;99.90
16674;DHT22;8450;52.654;10.326;2023-05-18T10:48:37;20.60;99.90
16674;DHT22;8450;52.654;10.326;2023-05-18T10:51:06;20.70;99.90
16674;DHT22;8450;52.654;10.326;2023-05-18T10:53:32;20.90;99.90
16674;DHT22;8450;52.654;10.326;2023-05-18T10:55:58;21.10;99.90
16674;DHT22;8450;52.654;10.326;2023-05-18T10:58:25;21.20;99.90
16674;DHT22;8450;52.654;10.326;2023-05-18T11:00:57;21.40;99.90
16674;DHT22;8450;52.654;10.326;2023-05-18T11:03:23;21.60;99.90
16674;DHT22;8450;52.654;10.326;2023-05-18T11:06:03;21.70;99.90
16674;DHT22;8450;52.654;10.326;2023-05-18T11:08:31;21.90;99.90
16674;DHT22;8450;52.654;10.326;2023-05-18T11:11:03;22.10;99.90
16674;DHT22;8450;52.654;10.326;2023-05-18T11:13:33;22.40;99.90
16674;DHT22;8450;52.654;10.326;2023-05-18T11:21:20;22.50;99.90
16674;DHT22;8450;52.654;10.326;2023-05-18T11:26:51;22.50;99.90
16674;DHT22;8450;52.654;10.326;2023-05-18T11:29:19;22.70;99.90
16674;DHT22;8450;52.654;10.326;2023-05-18T11:31:46;22.80;99.90
16674;DHT22;8450;52.654;10.326;2023-05-18T11:34:45;22.90;99.90
16674;DHT22;8450;52.654;10.326;2023-05-18T11:40:09;23.20;99.40
16674;DHT22;8450;52.654;10.326;2023-05-18T11:42:35;23.40;99.10
16674;DHT22;8450;52.654;10.326;2023-05-18T11:45:08;23.40;99.40
16674;DHT22;8450;52.654;10.326;2023-05-18T11:47:35;23.50;98.20
16674;DHT22;8450;52.654;10.326;2023-05-18T11:50:02;23.40;99.40
16674;DHT22;8450;52.654;10.326;2023-05-18T11:52:30;23.40;99.40
16674;DHT22;8450;52.654;10.326;2023-05-18T11:54:57;23.50;99.10
16674;DHT22;8450;52.654;10.326;2023-05-18T12:00:00;23.60;98.90
16674;DHT22;8450;52.654;10.326;2023-05-18T12:02:30;23.70;98.10
16674;DHT22;8450;52.654;10.326;2023-05-18T12:04:57;23.60;99.10
16674;DHT22;8450;52.654;10.326;2023-05-18T12:07:28;23.80;98.60
16674;DHT22;8450;52.654;10.326;2023-05-18T12:10:01;23.90;98.20
16674;DHT22;8450;52.654;10.326;2023-05-18T12:12:27;24.00;99.20
16674;DHT22;8450;52.654;10.326;2023-05-18T12:14:54;24.30;97.10
16674;DHT22;8450;52.654;10.326;2023-05-18T12:17:21;24.30;97.60
16674;DHT22;8450;52.654;10.326;2023-05-18T12:19:48;24.40;96.60
16674;DHT22;8450;52.654;10.326;2023-05-18T12:22:14;24.50;96.30
16674;DHT22;8450;52.654;10.326;2023-05-18T12:24:41;24.60;96.30
16674;DHT22;8450;52.654;10.326;2023-05-18T12:27:08;24.50;98.10
16674;DHT22;8450;52.654;10.326;2023-05-18T12:29:38;24.40;97.20
16674;DHT22;8450;52.654;10.326;2023-05-18T12:32:08;24.40;97.30
16674;DHT22;8450;52.654;10.326;2023-05-18T12:34:35;24.30;98.00
16674;DHT22;8450;52.654;10.326;2023-05-18T12:37:01;24.30;98.10
16674;DHT22;8450;52.654;10.326;2023-05-18T12:39:27;24.20;97.60
16674;DHT22;8450;52.654;10.326;2023-05-18T12:41:52;24.30;97.90
16674;DHT22;8450;52.654;10.326;2023-05-18T12:44:19;24.40;97.10
16674;DHT22;8450;52.654;10.326;2023-05-18T12:46:46;24.30;97.90
16674;DHT22;8450;52.654;10.326;2023-05-18T12:49:12;24.20;98.10
16674;DHT22;8450;52.654;10.326;2023-05-18T12:51:38;24.50;97.50
16674;DHT22;8450;52.654;10.326;2023-05-18T12:54:05;24.50;97.60
16674;DHT22;8450;52.654;10.326;2023-05-18T12:56:50;24.50;96.80
16674;DHT22;8450;52.654;10.326;2023-05-18T12:59:19;24.50;97.90
16674;DHT22;8450;52.654;10.326;2023-05-18T13:01:44;24.60;97.50
16674;DHT22;8450;52.654;10.326;2023-05-18T13:04:11;24.80;96.90
16674;DHT22;8450;52.654;10.326;2023-05-18T13:06:37;24.80;97.30
16674;DHT22;8450;52.654;10.326;2023-05-18T13:09:13;24.80;96.50
16674;DHT22;8450;52.654;10.326;2023-05-18T13:11:39;24.90;97.40
16674;DHT22;8450;52.654;10.326;2023-05-18T13:14:07;24.80;96.10
16674;DHT22;8450;52.654;10.326;2023-05-18T13:16:40;24.80;97.30
16674;DHT22;8450;52.654;10.326;2023-05-18T13:19:09;24.90;97.30
16674;DHT22;8450;52.654;10.326;2023-05-18T13:21:36;25.00;97.00
16674;DHT22;8450;52.654;10.326;2023-05-18T13:24:05;25.00;95.90
16674;DHT22;8450;52.654;10.326;2023-05-18T13:26:30;25.10;95.20
16674;DHT22;8450;52.654;10.326;2023-05-18T13:28:56;25.00;94.90
16674;DHT22;8450;52.654;10.326;2023-05-18T13:31:22;24.90;95.10
16674;DHT22;8450;52.654;10.326;2023-05-18T13:33:49;24.80;95.10
16674;DHT22;8450;52.654;10.326;2023-05-18T13:36:15;24.80;95.10
16674;DHT22;8450;52.654;10.326;2023-05-18T13:38:41;24.70;94.00
16674;DHT22;8450;52.654;10.326;2023-05-18T13:41:09;24.60;94.50
16674;DHT22;8450;52.654;10.326;2023-05-18T13:43:36;24.50;95.80
16674;DHT22;8450;52.654;10.326;2023-05-18T13:46:02;24.40;96.20
16674;DHT22;8450;52.654;10.326;2023-05-18T13:48:28;24.30;94.80
16674;DHT22;8450;52.654;10.326;2023-05-18T13:50:54;24.20;95.10
16674;DHT22;8450;52.654;10.326;2023-05-18T13:53:21;24.10;95.10
16674;DHT22;8450;52.654;10.326;2023-05-18T13:55:47;24.00;95.30
16674;DHT22;8450;52.654;10.326;2023-05-18T13:58:13;24.00;95.10
16674;DHT22;8450;52.654;10.326;2023-05-18T14:00:38;23.80;96.00
16674;DHT22;8450;52.654;10.326;2023-05-18T14:03:04;23.60;94.20
16674;DHT22;8450;52.654;10.326;2023-05-18T14:05:30;23.60;94.20
16674;DHT22;8450;52.654;10.326;2023-05-18T14:07:56;23.60;93.50
16674;DHT22;8450;52.654;10.326;2023-05-18T14:10:21;23.40;96.10
16674;DHT22;8450;52.654;10.326;2023-05-18T14:12:47;23.10;95.80
16674;DHT22;8450;52.654;10.326;2023-05-18T14:15:13;23.10;95.80
16674;DHT22;8450;52.654;10.326;2023-05-18T14:17:43;23.10;95.50
16674;DHT22;8450;52.654;10.326;2023-05-18T14:20:09;23.00;95.70
16674;DHT22;8450;52.654;10.326;2023-05-18T14:22:35;22.90;95.30
16674;DHT22;8450;52.654;10.326;2023-05-18T14:25:01;22.90;95.60
16674;DHT22;8450;52.654;10.326;2023-05-18T14:27:27;22.80;95.50
16674;DHT22;8450;52.654;10.326;2023-05-18T14:29:53;22.80;95.70
16674;DHT22;8450;52.654;10.326;2023-05-18T14:32:18;22.60;95.10
16674;DHT22;8450;52.654;10.326;2023-05-18T14:34:47;22.60;95.20
16674;DHT22;8450;52.654;10.326;2023-05-18T14:37:16;22.70;95.70
16674;DHT22;8450;52.654;10.326;2023-05-18T14:39:42;22.80;95.40
16674;DHT22;8450;52.654;10.326;2023-05-18T14:42:07;22.80;95.40
16674;DHT22;8450;52.654;10.326;2023-05-18T14:44:33;22.60;95.20
16674;DHT22;8450;52.654;10.326;2023-05-18T14:46:58;22.60;95.30
16674;DHT22;8450;52.654;10.326;2023-05-18T14:49:24;22.70;95.60
16674;DHT22;8450;52.654;10.326;2023-05-18T14:51:49;22.80;95.40
16674;DHT22;8450;52.654;10.326;2023-05-18T14:54:15;22.80;93.80
16674;DHT22;8450;52.654;10.326;2023-05-18T14:56:42;22.90;94.40
16674;DHT22;8450;52.654;10.326;2023-05-18T14:59:07;22.80;94.40
16674;DHT22;8450;52.654;10.326;2023-05-18T15:01:33;22.80;94.50
16674;DHT22;8450;52.654;10.326;2023-05-18T15:03:58;22.80;94.50
16674;DHT22;8450;52.654;10.326;2023-05-18T15:06:24;22.80;94.80
16674;DHT22;8450;52.654;10.326;2023-05-18T15:08:50;22.80;95.70
16674;DHT22;8450;52.654;10.326;2023-05-18T15:11:16;22.70;95.50
16674;DHT22;8450;52.654;10.326;2023-05-18T15:13:41;22.60;95.10
16674;DHT22;8450;52.654;10.326;2023-05-18T15:16:08;22.60;95.30
16674;DHT22;8450;52.654;10.326;2023-05-18T15:18:34;22.60;95.50
16674;DHT22;8450;52.654;10.326;2023-05-18T15:20:59;22.50;95.30
16674;DHT22;8450;52.654;10.326;2023-05-18T15:23:25;22.50;95.40
16674;DHT22;8450;52.654;10.326;2023-05-18T15:25:51;22.50;95.30
16674;DHT22;8450;52.654;10.326;2023-05-18T15:28:16;22.40;94.50
16674;DHT22;8450;52.654;10.326;2023-05-18T15:30:42;22.40;94.80
16674;DHT22;8450;52.654;10.326;2023-05-18T15:33:08;22.30;94.80
16674;DHT22;8450;52.654;10.326;2023-05-18T15:35:33;22.20;94.90
16674;DHT22;8450;52.654;10.326;2023-05-18T15:38:01;22.20;94.80
16674;DHT22;8450;52.654;10.326;2023-05-18T15:40:26;22.20;95.40
16674;DHT22;8450;52.654;10.326;2023-05-18T15:42:52;22.10;95.00
16674;DHT22;8450;52.654;10.326;2023-05-18T15:45:17;22.00;94.80
16674;DHT22;8450;52.654;10.326;2023-05-18T15:47:43;21.90;95.00
16674;DHT22;8450;52.654;10.326;2023-05-18T15:50:09;21.80;94.50
16674;DHT22;8450;52.654;10.326;2023-05-18T15:52:35;21.60;94.50
16674;DHT22;8450;52.654;10.326;2023-05-18T15:55:00;21.70;94.80
16674;DHT22;8450;52.654;10.326;2023-05-18T15:57:26;21.70;93.70
16674;DHT22;8450;52.654;10.326;2023-05-18T15:59:52;21.80;93.90
16674;DHT22;8450;52.654;10.326;2023-05-18T16:02:17;21.80;94.10
16674;DHT22;8450;52.654;10.326;2023-05-18T16:04:43;21.60;93.70
16674;DHT22;8450;52.654;10.326;2023-05-18T16:07:08;21.60;94.30
16674;DHT22;8450;52.654;10.326;2023-05-18T16:09:34;21.60;94.50
16674;DHT22;8450;52.654;10.326;2023-05-18T16:11:59;21.30;93.80
16674;DHT22;8450;52.654;10.326;2023-05-18T16:14:25;21.40;94.00
16674;DHT22;8450;52.654;10.326;2023-05-18T16:16:50;21.40;93.90
16674;DHT22;8450;52.654;10.326;2023-05-18T16:19:16;21.50;94.70
16674;DHT22;8450;52.654;10.326;2023-05-18T16:21:43;21.50;93.40
16674;DHT22;8450;52.654;10.326;2023-05-18T16:24:08;21.40;93.90
16674;DHT22;8450;52.654;10.326;2023-05-18T16:26:34;21.40;94.40
16674;DHT22;8450;52.654;10.326;2023-05-18T16:29:00;21.50;94.50
16674;DHT22;8450;52.654;10.326;2023-05-18T16:31:27;21.40;93.60
16674;DHT22;8450;52.654;10.326;2023-05-18T16:33:53;21.40;93.70
16674;DHT22;8450;52.654;10.326;2023-05-18T16:36:18;21.30;94.40
16674;DHT22;8450;52.654;10.326;2023-05-18T16:38:44;21.30;94.60
16674;DHT22;8450;52.654;10.326;2023-05-18T16:41:09;21.20;94.80
16674;DHT22;8450;52.654;10.326;2023-05-18T16:43:35;21.20;94.80
16674;DHT22;8450;52.654;10.326;2023-05-18T16:46:01;21.10;95.10
16674;DHT22;8450;52.654;10.326;2023-05-18T16:48:26;21.00;95.20
16674;DHT22;8450;52.654;10.326;2023-05-18T16:50:52;20.90;95.20
16674;DHT22;8450;52.654;10.326;2023-05-18T16:53:18;20.70;94.90
16674;DHT22;8450;52.654;10.326;2023-05-18T16:55:43;20.70;95.00
16674;DHT22;8450;52.654;10.326;2023-05-18T16:58:09;20.70;94.90
16674;DHT22;8450;52.654;10.326;2023-05-18T17:00:35;20.70;94.60
16674;DHT22;8450;52.654;10.326;2023-05-18T17:03:01;20.60;94.80
16674;DHT22;8450;52.654;10.326;2023-05-18T17:05:28;20.50;95.30
16674;DHT22;8450;52.654;10.326;2023-05-18T17:07:54;20.40;95.50
16674;DHT22;8450;52.654;10.326;2023-05-18T17:10:20;20.30;95.50
16674;DHT22;8450;52.654;10.326;2023-05-18T17:12:46;20.20;95.90
16674;DHT22;8450;52.654;10.326;2023-05-18T17:15:12;20.20;95.80
16674;DHT22;8450;52.654;10.326;2023-05-18T17:17:38;20.10;95.90
16674;DHT22;8450;52.654;10.326;2023-05-18T17:20:05;20.00;95.90
16674;DHT22;8450;52.654;10.326;2023-05-18T17:22:31;19.90;96.10
16674;DHT22;8450;52.654;10.326;2023-05-18T17:24:57;19.80;95.90
16674;DHT22;8450;52.654;10.326;2023-05-18T17:27:23;19.80;96.00
16674;DHT22;8450;52.654;10.326;2023-05-18T17:29:48;19.70;96.00
16674;DHT22;8450;52.654;10.326;2023-05-18T17:32:14;19.60;95.70
16674;DHT22;8450;52.654;10.326;2023-05-18T17:34:40;19.50;95.80
16674;DHT22;8450;52.654;10.326;2023-05-18T17:37:05;19.40;95.90
16674;DHT22;8450;52.654;10.326;2023-05-18T17:39:31;19.30;96.30
16674;DHT22;8450;52.654;10.326;2023-05-18T17:41:57;19.30;96.60
16674;DHT22;8450;52.654;10.326;2023-05-18T17:44:24;19.20;96.50
16674;DHT22;8450;52.654;10.326;2023-05-18T17:46:50;19.10;96.60
16674;DHT22;8450;52.654;10.326;2023-05-18T17:49:15;18.90;96.50
16674;DHT22;8450;52.654;10.326;2023-05-18T17:51:41;18.80;96.50
16674;DHT22;8450;52.654;10.326;2023-05-18T17:54:07;18.70;96.30
16674;DHT22;8450;52.654;10.326;2023-05-18T17:56:36;18.70;96.60
16674;DHT22;8450;52.654;10.326;2023-05-18T17:59:03;18.60;96.60
16674;DHT22;8450;52.654;10.326;2023-05-18T18:01:28;18.50;96.70
16674;DHT22;8450;52.654;10.326;2023-05-18T18:03:55;18.50;96.70
16674;DHT22;8450;52.654;10.326;2023-05-18T18:06:21;18.40;97.00
16674;DHT22;8450;52.654;10.326;2023-05-18T18:08:57;18.40;97.30
16674;DHT22;8450;52.654;10.326;2023-05-18T18:11:25;18.30;97.00
16674;DHT22;8450;52.654;10.326;2023-05-18T18:13:51;18.20;97.10
16674;DHT22;8450;52.654;10.326;2023-05-18T18:16:18;18.20;97.20
16674;DHT22;8450;52.654;10.326;2023-05-18T18:18:44;18.10;97.20
16674;DHT22;8450;52.654;10.326;2023-05-18T18:21:10;18.00;97.10
16674;DHT22;8450;52.654;10.326;2023-05-18T18:23:37;17.90;96.90
